sensor_id;sensor_type;location;lat;lon;timestamp;temperature;humidity
18177;DHT22;9213;50.858;3.964;2023-03-04T00:01:32;10.10;44.30
18177;DHT22;9213;50.858;3.964;2023-03-04T00:04:00;10.10;45.20
18177;DHT22;9213;50.858;3.964;2023-03-04T00:06:27;10.10;44.30
18177;DHT22;9213;50.858;3.964;2023-03-04T00:08:54;10.00;44.20
18177;DHT22;9213;50.858;3.964;2023-03-04T00:11:21;10.00;44.20
18177;DHT22;9213;50.858;3.964;2023-03-04T00:13:48;10.00;44.20
18177;DHT22;9213;50.858;3.964;2023-03-04T00:16:15;10.10;44.30
18177;DHT22;9213;50.858;3.964;2023-03-04T00:18:43;10.00;44.20
18177;DHT22;9213;50.858;3.964;2023-03-04T00:21:10;10.10;44.30
18177;DHT22;9213;50.858;3.964;2023-03-04T00:23:37;10.00;44.20
18177;DHT22;9213;50.858;3.964;2023-03-04T00:26:06;10.00;44.30
18177;DHT22;9213;50.858;3.964;2023-03-04T00:28:34;10.00;44.30
18177;DHT22;9213;50.858;3.964;2023-03-04T00:31:01;10.00;44.30
18177;DHT22;9213;50.858;3.964;2023-03-04T00:33:28;10.10;44.50
18177;DHT22;9213;50.858;3.964;2023-03-04T00:35:56;10.00;44.50
18177;DHT22;9213;50.858;3.964;2023-03-04T00:38:23;10.10;44.60
18177;DHT22;9213;50.858;3.964;2023-03-04T00:40:50;10.00;44.50
18177;DHT22;9213;50.858;3.964;2023-03-04T00:43:17;10.00;44.60
18177;DHT22;9213;50.858;3.964;2023-03-04T00:45:44;10.10;44.70
18177;DHT22;9213;50.858;3.964;2023-03-04T00:48:11;10.00;44.60
18177;DHT22;9213;50.858;3.964;2023-03-04T00:50:38;10.10;44.70
18177;DHT22;9213;50.858;3.964;2023-03-04T00:53:06;10.10;44.70
18177;DHT22;9213;50.858;3.964;2023-03-04T00:55:33;10.10;44.70
18177;DHT22;9213;50.858;3.964;2023-03-04T00:58:00;10.10;44.60
18177;DHT22;9213;50.858;3.964;2023-03-04T01:00:27;10.10;44.60
18177;DHT22;9213;50.858;3.964;2023-03-04T01:02:54;10.10;44.60
18177;DHT22;9213;50.858;3.964;2023-03-04T01:05:21;10.10;44.60
18177;DHT22;9213;50.858;3.964;2023-03-04T01:07:48;10.10;44.60
18177;DHT22;9213;50.858;3.964;2023-03-04T01:10:16;10.10;44.70
18177;DHT22;9213;50.858;3.964;2023-03-04T01:12:44;10.10;44.60
18177;DHT22;9213;50.858;3.964;2023-03-04T01:15:12;10.10;44.60
18177;DHT22;9213;50.858;3.964;2023-03-04T01:17:39;10.10;44.60
18177;DHT22;9213;50.858;3.964;2023-03-04T01:20:08;10.10;44.50
18177;DHT22;9213;50.858;3.964;2023-03-04T01:22:35;10.10;44.50
18177;DHT22;9213;50.858;3.964;2023-03-04T01:25:02;10.20;44.50
18177;DHT22;9213;50.858;3.964;2023-03-04T01:27:31;10.10;44.60
18177;DHT22;9213;50.858;3.964;2023-03-04T01:29:58;10.10;44.60
18177;DHT22;9213;50.858;3.964;2023-03-04T01:32:25;10.10;44.60
18177;DHT22;9213;50.858;3.964;2023-03-04T01:34:51;10.10;44.70
18177;DHT22;9213;50.858;3.964;2023-03-04T01:37:18;10.10;44.70
18177;DHT22;9213;50.858;3.964;2023-03-04T01:39:45;10.10;44.90
18177;DHT22;9213;50.858;3.964;2023-03-04T01:42:16;10.10;44.90
18177;DHT22;9213;50.858;3.964;2023-03-04T01:44:46;10.10;45.10
18177;DHT22;9213;50.858;3.964;2023-03-04T01:47:14;10.10;45.10
18177;DHT22;9213;50.858;3.964;2023-03-04T01:49:42;10.10;45.10
18177;DHT22;9213;50.858;3.964;2023-03-04T01:52:11;10.10;45.20
18177;DHT22;9213;50.858;3.964;2023-03-04T01:54:39;10.10;45.20
18177;DHT22;9213;50.858;3.964;2023-03-04T01:57:15;10.10;45.20
18177;DHT22;9213;50.858;3.964;2023-03-04T01:59:45;10.10;45.30
18177;DHT22;9213;50.858;3.964;2023-03-04T02:02:13;10.00;45.20
18177;DHT22;9213;50.858;3.964;2023-03-04T02:04:41;10.00;45.30
18177;DHT22;9213;50.858;3.964;2023-03-04T02:07:08;10.00;45.40
18177;DHT22;9213;50.858;3.964;2023-03-04T02:09:35;10.00;45.60
18177;DHT22;9213;50.858;3.964;2023-03-04T02:12:03;10.00;45.60
18177;DHT22;9213;50.858;3.964;2023-03-04T02:14:30;10.00;45.70
18177;DHT22;9213;50.858;3.964;2023-03-04T02:16:58;10.00;45.60
18177;DHT22;9213;50.858;3.964;2023-03-04T02:19:37;10.00;45.70
18177;DHT22;9213;50.858;3.964;2023-03-04T02:22:07;10.00;45.80
18177;DHT22;9213;50.858;3.964;2023-03-04T02:24:38;10.00;45.70
18177;DHT22;9213;50.858;3.964;2023-03-04T02:27:06;10.00;45.90
18177;DHT22;9213;50.858;3.964;2023-03-04T02:29:33;9.90;45.90
18177;DHT22;9213;50.858;3.964;2023-03-04T02:32:00;10.00;45.90
18177;DHT22;9213;50.858;3.964;2023-03-04T02:34:29;10.00;46.00
18177;DHT22;9213;50.858;3.964;2023-03-04T02:36:58;10.00;46.00
18177;DHT22;9213;50.858;3.964;2023-03-04T02:39:29;9.90;46.00
18177;DHT22;9213;50.858;3.964;2023-03-04T02:41:57;10.00;46.00
18177;DHT22;9213;50.858;3.964;2023-03-04T02:44:27;9.90;46.00
18177;DHT22;9213;50.858;3.964;2023-03-04T02:46:55;9.90;46.20
18177;DHT22;9213;50.858;3.964;2023-03-04T02:49:24;9.90;46.20
18177;DHT22;9213;50.858;3.964;2023-03-04T02:51:52;9.90;46.40
18177;DHT22;9213;50.858;3.964;2023-03-04T02:54:24;9.90;46.30
18177;DHT22;9213;50.858;3.964;2023-03-04T02:56:52;9.90;46.40
18177;DHT22;9213;50.858;3.964;2023-03-04T02:59:20;10.00;46.50
18177;DHT22;9213;50.858;3.964;2023-03-04T03:01:49;9.90;46.50
18177;DHT22;9213;50.858;3.964;2023-03-04T03:04:17;9.90;46.50
18177;DHT22;9213;50.858;3.964;2023-03-04T03:06:45;9.90;46.50
18177;DHT22;9213;50.858;3.964;2023-03-04T03:09:12;9.90;47.30
18177;DHT22;9213;50.858;3.964;2023-03-04T03:11:39;9.90;46.60
18177;DHT22;9213;50.858;3.964;2023-03-04T03:14:06;10.00;46.70
18177;DHT22;9213;50.858;3.964;2023-03-04T03:16:33;10.00;46.70
18177;DHT22;9213;50.858;3.964;2023-03-04T03:19:02;10.00;46.70
18177;DHT22;9213;50.858;3.964;2023-03-04T03:21:29;10.00;46.70
18177;DHT22;9213;50.858;3.964;2023-03-04T03:23:56;10.00;46.70
18177;DHT22;9213;50.858;3.964;2023-03-04T03:26:23;10.00;46.70
18177;DHT22;9213;50.858;3.964;2023-03-04T03:28:50;10.00;46.80
18177;DHT22;9213;50.858;3.964;2023-03-04T03:31:16;10.00;46.80
18177;DHT22;9213;50.858;3.964;2023-03-04T03:33:44;10.00;47.60
18177;DHT22;9213;50.858;3.964;2023-03-04T03:36:12;10.00;46.90
18177;DHT22;9213;50.858;3.964;2023-03-04T03:38:39;10.00;47.00
18177;DHT22;9213;50.858;3.964;2023-03-04T03:41:06;10.00;47.00
18177;DHT22;9213;50.858;3.964;2023-03-04T03:43:33;10.00;46.90
18177;DHT22;9213;50.858;3.964;2023-03-04T03:46:00;10.00;46.90
18177;DHT22;9213;50.858;3.964;2023-03-04T03:48:27;10.00;46.80
18177;DHT22;9213;50.858;3.964;2023-03-04T03:50:54;10.00;46.90
18177;DHT22;9213;50.858;3.964;2023-03-04T03:53:23;10.00;46.90
18177;DHT22;9213;50.858;3.964;2023-03-04T03:55:49;10.00;47.00
18177;DHT22;9213;50.858;3.964;2023-03-04T03:58:16;10.00;47.00
18177;DHT22;9213;50.858;3.964;2023-03-04T04:00:43;10.00;46.90
18177;DHT22;9213;50.858;3.964;2023-03-04T04:03:13;10.00;47.00
18177;DHT22;9213;50.858;3.964;2023-03-04T04:05:41;10.00;47.00
18177;DHT22;9213;50.858;3.964;2023-03-04T04:08:11;10.00;46.90
18177;DHT22;9213;50.858;3.964;2023-03-04T04:10:39;10.00;47.00
18177;DHT22;9213;50.858;3.964;2023-03-04T04:13:06;10.00;46.90
18177;DHT22;9213;50.858;3.964;2023-03-04T04:15:33;10.10;47.00
18177;DHT22;9213;50.858;3.964;2023-03-04T04:18:01;10.10;47.00
18177;DHT22;9213;50.858;3.964;2023-03-04T04:20:28;10.00;46.90
18177;DHT22;9213;50.858;3.964;2023-03-04T04:22:55;10.00;47.00
18177;DHT22;9213;50.858;3.964;2023-03-04T04:25:22;10.10;47.00
18177;DHT22;9213;50.858;3.964;2023-03-04T04:27:50;10.00;46.90
18177;DHT22;9213;50.858;3.964;2023-03-04T04:30:17;10.00;46.90
18177;DHT22;9213;50.858;3.964;2023-03-04T04:32:44;10.00;46.90
18177;DHT22;9213;50.858;3.964;2023-03-04T04:35:11;10.00;46.90
18177;DHT22;9213;50.858;3.964;2023-03-04T04:37:38;10.00;47.00
18177;DHT22;9213;50.858;3.964;2023-03-04T04:40:06;10.00;47.00
18177;DHT22;9213;50.858;3.964;2023-03-04T04:42:33;10.00;46.90
18177;DHT22;9213;50.858;3.964;2023-03-04T04:45:01;10.10;47.00
18177;DHT22;9213;50.858;3.964;2023-03-04T04:47:28;10.10;47.10
18177;DHT22;9213;50.858;3.964;2023-03-04T04:49:55;10.10;47.00
18177;DHT22;9213;50.858;3.964;2023-03-04T04:52:22;10.10;47.10
18177;DHT22;9213;50.858;3.964;2023-03-04T04:54:49;10.10;47.10
18177;DHT22;9213;50.858;3.964;2023-03-04T04:57:16;10.10;47.10
18177;DHT22;9213;50.858;3.964;2023-03-04T04:59:43;10.10;47.10
18177;DHT22;9213;50.858;3.964;2023-03-04T05:02:11;10.10;47.10
18177;DHT22;9213;50.858;3.964;2023-03-04T05:04:38;10.10;47.20
18177;DHT22;9213;50.858;3.964;2023-03-04T05:07:05;10.10;47.20
18177;DHT22;9213;50.858;3.964;2023-03-04T05:09:32;10.10;47.30
18177;DHT22;9213;50.858;3.964;2023-03-04T05:11:59;10.10;47.30
18177;DHT22;9213;50.858;3.964;2023-03-04T05:14:26;10.10;48.10
18177;DHT22;9213;50.858;3.964;2023-03-04T05:16:53;10.10;47.40
18177;DHT22;9213;50.858;3.964;2023-03-04T05:19:21;10.10;47.20
18177;DHT22;9213;50.858;3.964;2023-03-04T05:21:48;10.10;47.30
18177;DHT22;9213;50.858;3.964;2023-03-04T05:24:15;10.10;48.10
18177;DHT22;9213;50.858;3.964;2023-03-04T05:26:42;10.10;47.40
18177;DHT22;9213;50.858;3.964;2023-03-04T05:29:09;10.10;47.40
18177;DHT22;9213;50.858;3.964;2023-03-04T05:31:36;10.10;47.40
18177;DHT22;9213;50.858;3.964;2023-03-04T05:34:03;10.10;47.50
18177;DHT22;9213;50.858;3.964;2023-03-04T05:36:31;10.10;47.60
18177;DHT22;9213;50.858;3.964;2023-03-04T05:38:58;10.10;47.60
18177;DHT22;9213;50.858;3.964;2023-03-04T05:41:25;10.10;47.70
18177;DHT22;9213;50.858;3.964;2023-03-04T05:43:52;10.10;47.80
18177;DHT22;9213;50.858;3.964;2023-03-04T05:46:19;10.10;47.70
18177;DHT22;9213;50.858;3.964;2023-03-04T05:48:50;10.10;47.80
18177;DHT22;9213;50.858;3.964;2023-03-04T05:51:18;10.00;47.70
18177;DHT22;9213;50.858;3.964;2023-03-04T05:53:46;10.10;47.80
18177;DHT22;9213;50.858;3.964;2023-03-04T05:56:15;10.00;47.70
18177;DHT22;9213;50.858;3.964;2023-03-04T05:58:42;10.00;47.80
18177;DHT22;9213;50.858;3.964;2023-03-04T06:01:09;10.00;47.70
18177;DHT22;9213;50.858;3.964;2023-03-04T06:03:36;10.00;47.80
18177;DHT22;9213;50.858;3.964;2023-03-04T06:06:04;10.00;47.70
18177;DHT22;9213;50.858;3.964;2023-03-04T06:08:31;10.00;47.80
18177;DHT22;9213;50.858;3.964;2023-03-04T06:11:00;10.00;47.80
18177;DHT22;9213;50.858;3.964;2023-03-04T06:13:27;10.00;47.70
18177;DHT22;9213;50.858;3.964;2023-03-04T06:15:55;10.10;47.80
18177;DHT22;9213;50.858;3.964;2023-03-04T06:18:23;10.00;47.70
18177;DHT22;9213;50.858;3.964;2023-03-04T06:20:50;10.00;47.70
18177;DHT22;9213;50.858;3.964;2023-03-04T06:23:20;10.10;47.70
18177;DHT22;9213;50.858;3.964;2023-03-04T06:25:51;10.00;47.60
18177;DHT22;9213;50.858;3.964;2023-03-04T06:28:19;10.10;47.70
18177;DHT22;9213;50.858;3.964;2023-03-04T06:30:46;10.10;47.70
18177;DHT22;9213;50.858;3.964;2023-03-04T06:33:13;10.10;47.70
18177;DHT22;9213;50.858;3.964;2023-03-04T06:35:40;10.10;47.80
18177;DHT22;9213;50.858;3.964;2023-03-04T06:38:07;10.10;47.80
18177;DHT22;9213;50.858;3.964;2023-03-04T06:40:34;10.10;47.90
18177;DHT22;9213;50.858;3.964;2023-03-04T06:43:01;10.10;47.90
18177;DHT22;9213;50.858;3.964;2023-03-04T06:45:29;10.10;48.00
18177;DHT22;9213;50.858;3.964;2023-03-04T06:47:56;10.10;48.00
18177;DHT22;9213;50.858;3.964;2023-03-04T06:50:23;10.10;48.00
18177;DHT22;9213;50.858;3.964;2023-03-04T06:52:50;10.10;47.90
18177;DHT22;9213;50.858;3.964;2023-03-04T06:55:17;10.00;47.70
18177;DHT22;9213;50.858;3.964;2023-03-04T06:57:44;10.00;47.70
18177;DHT22;9213;50.858;3.964;2023-03-04T07:00:12;10.00;47.70
18177;DHT22;9213;50.858;3.964;2023-03-04T07:02:41;10.00;47.60
18177;DHT22;9213;50.858;3.964;2023-03-04T07:05:08;10.10;47.60
18177;DHT22;9213;50.858;3.964;2023-03-04T07:07:36;10.10;47.60
18177;DHT22;9213;50.858;3.964;2023-03-04T07:10:03;10.10;47.60
18177;DHT22;9213;50.858;3.964;2023-03-04T07:12:31;10.10;47.60
18177;DHT22;9213;50.858;3.964;2023-03-04T07:14:58;10.10;47.40
18177;DHT22;9213;50.858;3.964;2023-03-04T07:17:25;10.10;47.30
18177;DHT22;9213;50.858;3.964;2023-03-04T07:19:53;10.10;47.30
18177;DHT22;9213;50.858;3.964;2023-03-04T07:22:20;10.20;47.40
18177;DHT22;9213;50.858;3.964;2023-03-04T07:24:47;10.20;47.30
18177;DHT22;9213;50.858;3.964;2023-03-04T07:27:14;10.20;47.30
18177;DHT22;9213;50.858;3.964;2023-03-04T07:29:40;10.20;47.20
18177;DHT22;9213;50.858;3.964;2023-03-04T07:32:08;10.20;47.10
18177;DHT22;9213;50.858;3.964;2023-03-04T07:34:35;10.20;47.10
18177;DHT22;9213;50.858;3.964;2023-03-04T07:37:04;10.20;47.10
18177;DHT22;9213;50.858;3.964;2023-03-04T07:39:31;10.20;47.20
18177;DHT22;9213;50.858;3.964;2023-03-04T07:41:57;10.30;47.20
18177;DHT22;9213;50.858;3.964;2023-03-04T07:44:24;10.30;47.20
18177;DHT22;9213;50.858;3.964;2023-03-04T07:46:51;10.30;47.10
18177;DHT22;9213;50.858;3.964;2023-03-04T07:49:18;10.30;47.20
18177;DHT22;9213;50.858;3.964;2023-03-04T07:51:45;10.30;47.20
18177;DHT22;9213;50.858;3.964;2023-03-04T07:54:13;10.30;47.40
18177;DHT22;9213;50.858;3.964;2023-03-04T07:56:40;10.30;47.40
18177;DHT22;9213;50.858;3.964;2023-03-04T07:59:07;10.30;47.30
18177;DHT22;9213;50.858;3.964;2023-03-04T08:01:36;10.40;47.10
18177;DHT22;9213;50.858;3.964;2023-03-04T08:04:04;10.40;47.10
18177;DHT22;9213;50.858;3.964;2023-03-04T08:06:31;10.40;47.10
18177;DHT22;9213;50.858;3.964;2023-03-04T08:08:59;10.40;47.00
18177;DHT22;9213;50.858;3.964;2023-03-04T08:11:29;10.50;47.10
18177;DHT22;9213;50.858;3.964;2023-03-04T08:13:56;10.50;47.10
18177;DHT22;9213;50.858;3.964;2023-03-04T08:16:24;10.50;47.10
18177;DHT22;9213;50.858;3.964;2023-03-04T08:18:52;10.50;47.10
18177;DHT22;9213;50.858;3.964;2023-03-04T08:21:21;10.50;47.10
18177;DHT22;9213;50.858;3.964;2023-03-04T08:23:48;10.60;47.20
18177;DHT22;9213;50.858;3.964;2023-03-04T08:26:18;10.60;47.30
18177;DHT22;9213;50.858;3.964;2023-03-04T08:28:46;10.60;47.30
18177;DHT22;9213;50.858;3.964;2023-03-04T08:31:14;10.60;47.50
18177;DHT22;9213;50.858;3.964;2023-03-04T08:33:42;10.60;47.50
18177;DHT22;9213;50.858;3.964;2023-03-04T08:36:09;10.60;47.70
18177;DHT22;9213;50.858;3.964;2023-03-04T08:38:37;10.70;48.00
18177;DHT22;9213;50.858;3.964;2023-03-04T08:41:05;10.70;48.10
18177;DHT22;9213;50.858;3.964;2023-03-04T08:43:32;10.80;48.10
18177;DHT22;9213;50.858;3.964;2023-03-04T08:46:01;10.80;48.00
18177;DHT22;9213;50.858;3.964;2023-03-04T08:48:28;10.90;48.10
18177;DHT22;9213;50.858;3.964;2023-03-04T08:50:55;11.00;48.20
18177;DHT22;9213;50.858;3.964;2023-03-04T08:53:22;11.10;48.20
18177;DHT22;9213;50.858;3.964;2023-03-04T08:55:50;11.20;48.10
18177;DHT22;9213;50.858;3.964;2023-03-04T08:58:18;11.30;48.00
18177;DHT22;9213;50.858;3.964;2023-03-04T09:00:47;11.40;47.70
18177;DHT22;9213;50.858;3.964;2023-03-04T09:03:18;11.50;47.70
18177;DHT22;9213;50.858;3.964;2023-03-04T09:05:45;11.50;47.50
18177;DHT22;9213;50.858;3.964;2023-03-04T09:08:12;11.60;47.40
18177;DHT22;9213;50.858;3.964;2023-03-04T09:10:39;11.60;47.40
18177;DHT22;9213;50.858;3.964;2023-03-04T09:13:07;11.60;47.50
18177;DHT22;9213;50.858;3.964;2023-03-04T09:15:36;11.60;47.60
18177;DHT22;9213;50.858;3.964;2023-03-04T09:18:03;11.60;47.50
18177;DHT22;9213;50.858;3.964;2023-03-04T09:20:32;11.50;47.80
18177;DHT22;9213;50.858;3.964;2023-03-04T09:22:59;11.60;48.20
18177;DHT22;9213;50.858;3.964;2023-03-04T09:25:26;11.70;48.30
18177;DHT22;9213;50.858;3.964;2023-03-04T09:27:53;11.80;48.30
18177;DHT22;9213;50.858;3.964;2023-03-04T09:30:20;11.90;48.10
18177;DHT22;9213;50.858;3.964;2023-03-04T09:32:47;12.10;47.70
18177;DHT22;9213;50.858;3.964;2023-03-04T09:35:14;12.30;47.20
18177;DHT22;9213;50.858;3.964;2023-03-04T09:37:42;12.30;46.70
18177;DHT22;9213;50.858;3.964;2023-03-04T09:40:16;12.40;46.50
18177;DHT22;9213;50.858;3.964;2023-03-04T09:42:47;12.40;46.30
18177;DHT22;9213;50.858;3.964;2023-03-04T09:45:17;12.40;46.20
18177;DHT22;9213;50.858;3.964;2023-03-04T09:47:46;12.40;45.90
18177;DHT22;9213;50.858;3.964;2023-03-04T09:50:14;12.30;45.80
18177;DHT22;9213;50.858;3.964;2023-03-04T09:52:56;12.30;45.80
18177;DHT22;9213;50.858;3.964;2023-03-04T09:55:30;12.30;45.60
18177;DHT22;9213;50.858;3.964;2023-03-04T09:58:04;12.30;45.50
18177;DHT22;9213;50.858;3.964;2023-03-04T10:00:38;12.40;45.50
18177;DHT22;9213;50.858;3.964;2023-03-04T10:03:12;12.40;45.60
18177;DHT22;9213;50.858;3.964;2023-03-04T10:05:44;12.50;45.70
18177;DHT22;9213;50.858;3.964;2023-03-04T10:08:39;12.60;45.30
18177;DHT22;9213;50.858;3.964;2023-03-04T10:11:13;12.70;45.50
18177;DHT22;9213;50.858;3.964;2023-03-04T10:13:50;12.70;45.40
18177;DHT22;9213;50.858;3.964;2023-03-04T10:16:22;12.60;45.20
18177;DHT22;9213;50.858;3.964;2023-03-04T10:18:53;12.70;45.50
18177;DHT22;9213;50.858;3.964;2023-03-04T10:21:26;12.70;45.40
18177;DHT22;9213;50.858;3.964;2023-03-04T10:23:57;12.80;45.30
18177;DHT22;9213;50.858;3.964;2023-03-04T10:26:28;12.80;45.40
18177;DHT22;9213;50.858;3.964;2023-03-04T10:28:57;12.90;45.30
18177;DHT22;9213;50.858;3.964;2023-03-04T10:31:31;13.00;45.20
18177;DHT22;9213;50.858;3.964;2023-03-04T10:33:59;13.10;45.10
18177;DHT22;9213;50.858;3.964;2023-03-04T10:36:52;13.10;44.90
18177;DHT22;9213;50.858;3.964;2023-03-04T10:39:25;13.20;45.10
18177;DHT22;9213;50.858;3.964;2023-03-04T10:41:58;13.20;44.60
18177;DHT22;9213;50.858;3.964;2023-03-04T10:44:26;13.10;44.50
18177;DHT22;9213;50.858;3.964;2023-03-04T10:46:55;13.00;44.50
18177;DHT22;9213;50.858;3.964;2023-03-04T10:49:23;12.90;44.80
18177;DHT22;9213;50.858;3.964;2023-03-04T10:51:52;12.90;44.90
18177;DHT22;9213;50.858;3.964;2023-03-04T10:54:30;12.90;45.00
18177;DHT22;9213;50.858;3.964;2023-03-04T10:56:59;12.90;45.20
18177;DHT22;9213;50.858;3.964;2023-03-04T11:02:26;12.90;45.40
18177;DHT22;9213;50.858;3.964;2023-03-04T11:04:55;13.10;45.40
18177;DHT22;9213;50.858;3.964;2023-03-04T11:07:24;13.20;45.30
18177;DHT22;9213;50.858;3.964;2023-03-04T11:09:52;13.30;45.30
18177;DHT22;9213;50.858;3.964;2023-03-04T11:12:21;13.40;44.60
18177;DHT22;9213;50.858;3.964;2023-03-04T11:14:57;13.60;44.30
18177;DHT22;9213;50.858;3.964;2023-03-04T11:17:25;13.70;44.10
18177;DHT22;9213;50.858;3.964;2023-03-04T11:19:57;13.80;43.90
18177;DHT22;9213;50.858;3.964;2023-03-04T11:22:28;13.90;43.70
18177;DHT22;9213;50.858;3.964;2023-03-04T11:25:00;14.00;43.20
18177;DHT22;9213;50.858;3.964;2023-03-04T11:27:39;14.10;42.90
18177;DHT22;9213;50.858;3.964;2023-03-04T11:30:25;14.20;42.50
18177;DHT22;9213;50.858;3.964;2023-03-04T11:33:01;14.30;42.40
18177;DHT22;9213;50.858;3.964;2023-03-04T11:35:33;14.30;42.00
18177;DHT22;9213;50.858;3.964;2023-03-04T11:38:07;14.20;41.70
18177;DHT22;9213;50.858;3.964;2023-03-04T11:40:42;14.10;41.90
18177;DHT22;9213;50.858;3.964;2023-03-04T11:43:13;14.10;42.20
18177;DHT22;9213;50.858;3.964;2023-03-04T11:46:03;14.10;42.60
18177;DHT22;9213;50.858;3.964;2023-03-04T11:48:43;14.40;42.30
18177;DHT22;9213;50.858;3.964;2023-03-04T11:51:17;14.50;41.50
18177;DHT22;9213;50.858;3.964;2023-03-04T11:53:57;14.50;41.20
18177;DHT22;9213;50.858;3.964;2023-03-04T11:56:31;14.50;41.20
18177;DHT22;9213;50.858;3.964;2023-03-04T12:02:15;14.60;41.00
18177;DHT22;9213;50.858;3.964;2023-03-04T12:07:56;14.50;41.10
18177;DHT22;9213;50.858;3.964;2023-03-04T12:10:32;14.40;40.90
18177;DHT22;9213;50.858;3.964;2023-03-04T12:13:24;14.30;41.00
18177;DHT22;9213;50.858;3.964;2023-03-04T12:16:04;14.30;41.30
18177;DHT22;9213;50.858;3.964;2023-03-04T12:18:45;14.10;41.20
18177;DHT22;9213;50.858;3.964;2023-03-04T12:21:23;14.00;41.40
18177;DHT22;9213;50.858;3.964;2023-03-04T12:24:14;14.00;42.00
18177;DHT22;9213;50.858;3.964;2023-03-04T12:26:50;14.10;42.60
18177;DHT22;9213;50.858;3.964;2023-03-04T12:29:27;14.30;42.80
18177;DHT22;9213;50.858;3.964;2023-03-04T12:32:00;14.60;42.20
18177;DHT22;9213;50.858;3.964;2023-03-04T12:34:42;14.80;41.80
18177;DHT22;9213;50.858;3.964;2023-03-04T12:37:35;15.00;41.30
18177;DHT22;9213;50.858;3.964;2023-03-04T12:40:26;15.20;40.70
18177;DHT22;9213;50.858;3.964;2023-03-04T12:45:52;15.00;40.20
18177;DHT22;9213;50.858;3.964;2023-03-04T12:48:28;14.80;40.30
18177;DHT22;9213;50.858;3.964;2023-03-04T12:51:22;14.70;40.70
18177;DHT22;9213;50.858;3.964;2023-03-04T12:54:01;14.60;40.90
18177;DHT22;9213;50.858;3.964;2023-03-04T12:56:36;14.50;41.30
18177;DHT22;9213;50.858;3.964;2023-03-04T12:59:05;14.40;41.70
18177;DHT22;9213;50.858;3.964;2023-03-04T13:01:38;14.40;41.80
18177;DHT22;9213;50.858;3.964;2023-03-04T13:04:13;14.50;41.90
18177;DHT22;9213;50.858;3.964;2023-03-04T13:06:44;14.50;41.70
18177;DHT22;9213;50.858;3.964;2023-03-04T13:09:18;14.50;41.40
18177;DHT22;9213;50.858;3.964;2023-03-04T13:11:53;14.50;41.40
18177;DHT22;9213;50.858;3.964;2023-03-04T13:14:29;14.40;41.30
18177;DHT22;9213;50.858;3.964;2023-03-04T13:16:59;14.30;41.50
18177;DHT22;9213;50.858;3.964;2023-03-04T13:19:46;14.20;41.70
18177;DHT22;9213;50.858;3.964;2023-03-04T13:22:33;14.10;42.10
18177;DHT22;9213;50.858;3.964;2023-03-04T13:25:29;13.90;42.30
18177;DHT22;9213;50.858;3.964;2023-03-04T13:28:25;13.80;42.60
18177;DHT22;9213;50.858;3.964;2023-03-04T13:31:14;13.60;43.00
18177;DHT22;9213;50.858;3.964;2023-03-04T13:33:56;13.50;43.50
18177;DHT22;9213;50.858;3.964;2023-03-04T13:36:51;13.50;43.90
18177;DHT22;9213;50.858;3.964;2023-03-04T13:39:33;13.50;44.00
18177;DHT22;9213;50.858;3.964;2023-03-04T13:42:02;13.40;44.00
18177;DHT22;9213;50.858;3.964;2023-03-04T13:44:59;13.40;44.00
18177;DHT22;9213;50.858;3.964;2023-03-04T13:47:43;13.60;44.20
18177;DHT22;9213;50.858;3.964;2023-03-04T13:50:26;13.60;44.00
18177;DHT22;9213;50.858;3.964;2023-03-04T13:53:00;13.70;44.10
18177;DHT22;9213;50.858;3.964;2023-03-04T13:55:36;13.80;43.80
18177;DHT22;9213;50.858;3.964;2023-03-04T13:58:16;13.90;43.70
18177;DHT22;9213;50.858;3.964;2023-03-04T14:00:47;14.00;43.50
18177;DHT22;9213;50.858;3.964;2023-03-04T14:03:20;14.00;43.30
18177;DHT22;9213;50.858;3.964;2023-03-04T14:06:08;14.10;43.20
18177;DHT22;9213;50.858;3.964;2023-03-04T14:08:35;14.30;43.10
18177;DHT22;9213;50.858;3.964;2023-03-04T14:11:02;14.30;42.80
18177;DHT22;9213;50.858;3.964;2023-03-04T14:13:29;14.30;42.70
18177;DHT22;9213;50.858;3.964;2023-03-04T14:15:57;14.30;42.70
18177;DHT22;9213;50.858;3.964;2023-03-04T14:18:25;14.30;42.80
18177;DHT22;9213;50.858;3.964;2023-03-04T14:20:55;14.30;43.10
18177;DHT22;9213;50.858;3.964;2023-03-04T14:23:26;14.30;43.10
18177;DHT22;9213;50.858;3.964;2023-03-04T14:26:08;14.30;43.10
18177;DHT22;9213;50.858;3.964;2023-03-04T14:28:42;14.30;43.20
18177;DHT22;9213;50.858;3.964;2023-03-04T14:31:19;14.30;43.00
18177;DHT22;9213;50.858;3.964;2023-03-04T14:33:49;14.30;42.90
18177;DHT22;9213;50.858;3.964;2023-03-04T14:36:19;14.20;43.10
18177;DHT22;9213;50.858;3.964;2023-03-04T14:38:51;14.20;43.30
18177;DHT22;9213;50.858;3.964;2023-03-04T14:41:23;14.10;43.30
18177;DHT22;9213;50.858;3.964;2023-03-04T14:44:05;14.10;43.50
18177;DHT22;9213;50.858;3.964;2023-03-04T14:46:35;14.10;43.50
18177;DHT22;9213;50.858;3.964;2023-03-04T14:49:05;14.00;43.30
18177;DHT22;9213;50.858;3.964;2023-03-04T14:51:39;14.00;43.40
18177;DHT22;9213;50.858;3.964;2023-03-04T14:54:23;13.90;43.70
18177;DHT22;9213;50.858;3.964;2023-03-04T14:56:51;13.90;43.80
18177;DHT22;9213;50.858;3.964;2023-03-04T14:59:27;13.70;44.00
18177;DHT22;9213;50.858;3.964;2023-03-04T15:02:12;13.70;44.10
18177;DHT22;9213;50.858;3.964;2023-03-04T15:04:42;13.70;44.40
18177;DHT22;9213;50.858;3.964;2023-03-04T15:07:14;13.60;44.50
18177;DHT22;9213;50.858;3.964;2023-03-04T15:09:49;13.60;44.80
18177;DHT22;9213;50.858;3.964;2023-03-04T15:12:23;13.50;45.00
18177;DHT22;9213;50.858;3.964;2023-03-04T15:14:52;13.50;45.30
18177;DHT22;9213;50.858;3.964;2023-03-04T15:17:26;13.40;45.20
18177;DHT22;9213;50.858;3.964;2023-03-04T15:20:01;13.50;45.60
18177;DHT22;9213;50.858;3.964;2023-03-04T15:22:30;13.50;45.80
18177;DHT22;9213;50.858;3.964;2023-03-04T15:24:57;13.50;45.60
18177;DHT22;9213;50.858;3.964;2023-03-04T15:27:26;13.60;45.60
18177;DHT22;9213;50.858;3.964;2023-03-04T15:29:54;13.60;45.50
18177;DHT22;9213;50.858;3.964;2023-03-04T15:32:23;13.70;45.60
18177;DHT22;9213;50.858;3.964;2023-03-04T15:34:51;13.70;45.60
18177;DHT22;9213;50.858;3.964;2023-03-04T15:37:21;13.70;45.50
18177;DHT22;9213;50.858;3.964;2023-03-04T15:39:50;13.70;45.30
18177;DHT22;9213;50.858;3.964;2023-03-04T15:42:17;13.70;45.30
18177;DHT22;9213;50.858;3.964;2023-03-04T15:44:45;13.70;45.30
18177;DHT22;9213;50.858;3.964;2023-03-04T15:47:12;13.70;45.50
18177;DHT22;9213;50.858;3.964;2023-03-04T15:49:40;13.70;45.50
18177;DHT22;9213;50.858;3.964;2023-03-04T15:52:13;13.60;45.40
18177;DHT22;9213;50.858;3.964;2023-03-04T15:54:41;13.60;46.30
18177;DHT22;9213;50.858;3.964;2023-03-04T15:57:17;13.60;45.80
18177;DHT22;9213;50.858;3.964;2023-03-04T15:59:45;13.60;46.00
18177;DHT22;9213;50.858;3.964;2023-03-04T16:02:18;13.50;46.00
18177;DHT22;9213;50.858;3.964;2023-03-04T16:04:45;13.60;46.10
18177;DHT22;9213;50.858;3.964;2023-03-04T16:07:15;13.50;46.00
18177;DHT22;9213;50.858;3.964;2023-03-04T16:09:44;13.50;46.10
18177;DHT22;9213;50.858;3.964;2023-03-04T16:12:12;13.50;46.20
18177;DHT22;9213;50.858;3.964;2023-03-04T16:14:39;13.60;46.30
18177;DHT22;9213;50.858;3.964;2023-03-04T16:17:08;13.60;46.30
18177;DHT22;9213;50.858;3.964;2023-03-04T16:19:35;13.50;46.30